Time;durP1;ratioP1;P1;durP2;ratioP2;P2;SDS_P1;SDS_P2;PMS_P1;PMS_P2;Temp;Humidity;BMP_temperature;BMP_pressure;BME280_temperature;BME280_humidity;BME280_pressure;Samples;Min_cycle;Max_cycle;Signal;HPM_P1;HPM_P2
2023/12/22 00:01:07;;;;;;;1.65;0.40;;;4.10;99.90;;;;;;5087873;28;20056;-65
2023/12/22 00:03:32;;;;;;;1.30;0.60;;;4.20;99.90;;;;;;5090218;28;20103;-64
2023/12/22 00:05:58;;;;;;;1.73;0.47;;;4.20;99.90;;;;;;5070663;28;20058;-64
2023/12/22 00:08:24;;;;;;;1.95;0.60;;;4.20;99.90;;;;;;5084212;28;20051;-64
2023/12/22 00:10:50;;;;;;;2.72;0.85;;;4.30;99.90;;;;;;5072287;28;20027;-64
2023/12/22 00:13:15;;;;;;;2.90;0.73;;;4.30;99.90;;;;;;5090172;28;20182;-67
2023/12/22 00:15:44;;;;;;;2.97;0.63;;;4.30;99.90;;;;;;5090070;28;20115;-70
2023/12/22 00:18:10;;;;;;;1.10;0.35;;;4.30;99.90;;;;;;5089916;28;20035;-67
2023/12/22 00:20:35;;;;;;;1.27;0.50;;;4.30;99.90;;;;;;5090072;28;20036;-67
2023/12/22 00:23:01;;;;;;;0.60;0.30;;;4.20;99.90;;;;;;5102937;28;20099;-67
2023/12/22 00:25:27;;;;;;;1.13;0.30;;;4.20;99.90;;;;;;5101583;28;20039;-65
2023/12/22 00:27:53;;;;;;;1.92;0.73;;;4.10;99.90;;;;;;5088609;28;20110;-64
2023/12/22 00:30:18;;;;;;;2.60;0.45;;;4.10;99.90;;;;;;5089535;28;20371;-64
2023/12/22 00:32:44;;;;;;;0.75;0.25;;;4.10;99.90;;;;;;5088797;28;20074;-71
2023/12/22 00:35:09;;;;;;;0.50;0.13;;;4.00;99.90;;;;;;5089547;28;20028;-67
2023/12/22 00:37:35;;;;;;;1.92;0.30;;;4.00;99.90;;;;;;5089283;28;20476;-66
2023/12/22 00:40:04;;;;;;;2.17;0.20;;;4.00;99.90;;;;;;5088524;28;20776;-68
2023/12/22 00:42:29;;;;;;;3.47;0.10;;;3.90;99.90;;;;;;5088578;28;20462;-65
2023/12/22 00:44:55;;;;;;;1.65;0.10;;;3.80;99.90;;;;;;5089030;28;20050;-66
2023/12/22 00:47:20;;;;;;;1.20;0.10;;;3.70;99.90;;;;;;5089576;28;20030;-66
2023/12/22 00:49:46;;;;;;;0.17;0.10;;;3.70;99.90;;;;;;5088820;28;20455;-71
2023/12/22 00:52:12;;;;;;;0.13;0.00;;;3.70;99.90;;;;;;5089285;28;20034;-66
2023/12/22 00:54:37;;;;;;;0.20;0.00;;;3.70;99.90;;;;;;5089527;28;20024;-64
2023/12/22 00:57:03;;;;;;;0.10;0.00;;;3.70;99.90;;;;;;5088195;28;20643;-66
2023/12/22 00:59:30;;;;;;;0.70;0.10;;;3.70;99.90;;;;;;5088603;28;20064;-65
2023/12/22 01:01:55;;;;;;;0.40;0.10;;;3.70;99.90;;;;;;5088204;28;20036;-66
2023/12/22 01:04:21;;;;;;;0.00;0.00;;;3.60;99.90;;;;;;5089340;28;20092;-65
2023/12/22 01:06:46;;;;;;;0.65;0.10;;;3.60;99.90;;;;;;5096585;28;20032;-71
2023/12/22 01:09:12;;;;;;;0.00;0.00;;;3.50;99.90;;;;;;5089063;28;20036;-65
2023/12/22 01:11:38;;;;;;;0.32;0.10;;;3.50;99.90;;;;;;5076829;28;20054;-64
2023/12/22 01:14:03;;;;;;;1.23;0.10;;;3.40;99.90;;;;;;5087536;28;20622;-63
2023/12/22 01:16:29;;;;;;;0.10;0.05;;;3.40;99.90;;;;;;5088779;28;20028;-64
2023/12/22 01:18:54;;;;;;;0.90;0.10;;;3.40;99.90;;;;;;5088183;28;20028;-64
2023/12/22 01:21:20;;;;;;;0.13;0.10;;;3.40;99.90;;;;;;5094819;28;20036;-65
2023/12/22 01:23:45;;;;;;;1.55;0.10;;;3.30;99.90;;;;;;5088648;28;20032;-71
2023/12/22 01:26:11;;;;;;;0.35;0.10;;;3.30;99.90;;;;;;5087943;28;20046;-66
2023/12/22 01:28:37;;;;;;;2.58;0.30;;;3.30;99.90;;;;;;5088827;28;20039;-65
2023/12/22 01:31:03;;;;;;;1.92;0.50;;;3.40;99.90;;;;;;5087565;28;20036;-65
2023/12/22 01:33:29;;;;;;;3.10;0.82;;;3.40;99.90;;;;;;5088517;28;20087;-64
2023/12/22 01:35:55;;;;;;;3.95;1.17;;;3.30;99.90;;;;;;5087436;28;20042;-67
2023/12/22 01:38:21;;;;;;;1.55;0.57;;;3.30;99.90;;;;;;5088532;28;20735;-65
2023/12/22 01:40:46;;;;;;;1.55;0.47;;;3.40;99.90;;;;;;5084034;28;20106;-70
2023/12/22 01:43:14;;;;;;;2.53;0.20;;;3.40;99.90;;;;;;5082202;28;20115;-65
2023/12/22 01:45:43;;;;;;;0.45;0.20;;;3.40;99.90;;;;;;5101886;28;20028;-66
2023/12/22 01:48:09;;;;;;;1.05;0.17;;;3.40;99.90;;;;;;5087234;28;20799;-63
2023/12/22 01:50:36;;;;;;;1.80;0.28;;;3.40;99.90;;;;;;5088333;28;20519;-65
2023/12/22 01:53:03;;;;;;;2.10;0.20;;;3.50;99.90;;;;;;5087915;28;20023;-64
2023/12/22 01:55:29;;;;;;;1.02;0.30;;;3.50;99.90;;;;;;5092046;28;20024;-64
2023/12/22 01:57:56;;;;;;;1.08;0.40;;;3.50;99.90;;;;;;5091401;28;20032;-65
2023/12/22 02:00:21;;;;;;;3.90;0.40;;;3.60;99.90;;;;;;5094080;28;20109;-66
2023/12/22 02:02:48;;;;;;;3.88;0.75;;;3.70;99.90;;;;;;5112860;28;20039;-71
2023/12/22 02:05:14;;;;;;;1.60;0.60;;;3.80;99.90;;;;;;5110776;28;20093;-63
2023/12/22 02:07:41;;;;;;;3.03;1.23;;;3.80;99.90;;;;;;5100300;28;20486;-64
2023/12/22 02:10:08;;;;;;;11.00;1.63;;;4.00;99.90;;;;;;5091846;28;20024;-64
2023/12/22 02:12:35;;;;;;;5.15;1.20;;;4.20;99.90;;;;;;5092012;28;20020;-63
2023/12/22 02:15:01;;;;;;;3.85;1.33;;;4.30;99.90;;;;;;5101460;28;20036;-64
2023/12/22 02:17:38;;;;;;;5.90;1.00;;;4.40;99.90;;;;;;5091362;28;20048;-64
2023/12/22 02:20:06;;;;;;;5.28;1.38;;;4.40;99.90;;;;;;5093250;28;20074;-64
2023/12/22 02:22:32;;;;;;;4.32;0.90;;;4.50;99.90;;;;;;5107561;28;20473;-65
2023/12/22 02:24:57;;;;;;;4.43;0.95;;;4.60;99.90;;;;;;5111947;28;20035;-64
2023/12/22 02:28:01;;;;;;;4.63;1.27;;;4.70;99.90;;;;;;5105376;28;20031;-64
2023/12/22 02:30:34;;;;;;;6.88;1.30;;;4.70;99.90;;;;;;5053278;28;20086;-66
2023/12/22 02:33:03;;;;;;;3.60;1.20;;;4.70;99.90;;;;;;5091041;28;20051;-63
2023/12/22 02:35:30;;;;;;;7.43;1.50;;;4.70;99.90;;;;;;5093543;28;20038;-64
2023/12/22 02:38:01;;;;;;;4.68;1.45;;;4.70;99.90;;;;;;5078191;28;20774;-65
2023/12/22 02:40:28;;;;;;;5.20;1.20;;;4.70;99.90;;;;;;5074580;28;20470;-65
2023/12/22 02:42:54;;;;;;;6.07;1.83;;;4.70;99.90;;;;;;5092999;28;20040;-66
2023/12/22 02:45:20;;;;;;;4.85;1.73;;;4.60;99.90;;;;;;5091891;28;20031;-63
2023/12/22 02:47:46;;;;;;;7.68;1.60;;;4.90;99.90;;;;;;5102733;28;20040;-65
2023/12/22 02:50:13;;;;;;;6.53;1.73;;;5.00;99.90;;;;;;5109989;28;20024;-66
2023/12/22 02:52:39;;;;;;;10.55;1.70;;;5.10;99.90;;;;;;5080212;28;20024;-64
2023/12/22 02:55:05;;;;;;;5.10;1.40;;;5.20;99.90;;;;;;5092660;28;20050;-67
2023/12/22 02:57:31;;;;;;;12.95;1.55;;;5.30;99.90;;;;;;5084762;28;20067;-66
2023/12/22 02:59:57;;;;;;;5.97;1.42;;;5.40;99.90;;;;;;5109279;28;20059;-66
2023/12/22 03:02:23;;;;;;;11.38;1.90;;;5.50;99.90;;;;;;5111686;28;20032;-64
2023/12/22 03:04:48;;;;;;;6.10;1.45;;;5.50;99.90;;;;;;5099036;28;20024;-64
2023/12/22 03:07:15;;;;;;;10.00;2.03;;;5.50;99.90;;;;;;5090637;28;20102;-65
2023/12/22 03:09:42;;;;;;;6.25;1.52;;;5.50;99.90;;;;;;5092119;28;20078;-66
2023/12/22 03:12:08;;;;;;;2.92;1.10;;;5.50;99.90;;;;;;5106271;28;20107;-64
2023/12/22 03:14:34;;;;;;;7.78;1.38;;;5.60;99.90;;;;;;5089919;28;20458;-63
2023/12/22 03:17:00;;;;;;;7.20;1.40;;;5.60;99.90;;;;;;5074686;28;20032;-66
2023/12/22 03:19:26;;;;;;;6.20;1.08;;;5.70;99.90;;;;;;5103332;28;20020;-67
2023/12/22 03:21:52;;;;;;;7.63;1.40;;;5.60;99.90;;;;;;5095820;28;20035;-70
2023/12/22 03:24:22;;;;;;;3.40;0.90;;;5.70;99.90;;;;;;5088646;28;20028;-64
2023/12/22 03:26:48;;;;;;;7.53;1.05;;;5.60;99.90;;;;;;5077591;28;20028;-64
2023/12/22 03:29:14;;;;;;;3.17;0.80;;;5.70;99.90;;;;;;5064302;28;20032;-64
2023/12/22 03:31:40;;;;;;;6.78;1.10;;;5.70;99.90;;;;;;5089282;28;20050;-67
2023/12/22 03:34:05;;;;;;;5.18;1.13;;;5.60;99.90;;;;;;5079661;28;20067;-66
2023/12/22 03:36:31;;;;;;;9.05;1.23;;;5.60;99.90;;;;;;5069655;28;20034;-66
2023/12/22 03:38:57;;;;;;;4.38;1.10;;;5.60;99.90;;;;;;5059971;28;20082;-68
2023/12/22 03:41:22;;;;;;;7.95;1.10;;;5.60;99.90;;;;;;5081308;28;20068;-65
2023/12/22 03:43:48;;;;;;;7.88;1.23;;;5.60;99.90;;;;;;5083608;28;20090;-64
2023/12/22 03:46:14;;;;;;;5.40;1.02;;;5.70;99.90;;;;;;5088355;28;20024;-64
2023/12/22 03:48:39;;;;;;;7.18;1.23;;;5.70;99.90;;;;;;5098822;28;20035;-64
2023/12/22 03:51:05;;;;;;;9.10;1.23;;;5.70;99.90;;;;;;5078643;28;20522;-65
2023/12/22 03:53:30;;;;;;;6.80;1.05;;;5.70;99.90;;;;;;5096651;28;20028;-65
2023/12/22 03:55:56;;;;;;;5.32;1.05;;;5.70;99.90;;;;;;5094427;28;20049;-70
2023/12/22 03:58:22;;;;;;;6.80;1.27;;;5.90;99.90;;;;;;5079042;28;20473;-66
2023/12/22 04:00:47;;;;;;;5.43;1.10;;;6.10;99.90;;;;;;5090157;28;20505;-65
2023/12/22 04:03:14;;;;;;;6.10;1.75;;;6.20;99.90;;;;;;5098486;28;20062;-64
2023/12/22 04:05:39;;;;;;;8.82;1.23;;;6.20;99.90;;;;;;5108441;28;20158;-63
2023/12/22 04:08:06;;;;;;;9.52;1.20;;;6.20;99.90;;;;;;5089040;28;20082;-65
2023/12/22 04:10:31;;;;;;;8.02;1.40;;;6.10;99.90;;;;;;5109863;28;20482;-65
2023/12/22 04:12:57;;;;;;;16.35;1.52;;;6.20;99.90;;;;;;5107154;28;20043;-70
2023/12/22 04:15:23;;;;;;;9.27;1.30;;;6.20;99.90;;;;;;5105509;28;20035;-64
2023/12/22 04:17:49;;;;;;;4.50;0.95;;;6.20;99.90;;;;;;5089716;28;20038;-66
2023/12/22 04:20:15;;;;;;;8.55;1.10;;;6.20;99.90;;;;;;5099886;28;20158;-66
2023/12/22 04:22:41;;;;;;;6.82;1.13;;;6.20;99.90;;;;;;5110436;28;20134;-66
2023/12/22 04:25:07;;;;;;;7.57;1.20;;;6.20;99.90;;;;;;5104470;28;20422;-64
2023/12/22 04:27:33;;;;;;;7.72;1.00;;;6.20;99.90;;;;;;5109572;28;20032;-64
2023/12/22 04:29:59;;;;;;;10.93;1.27;;;6.20;99.90;;;;;;5101105;28;20084;-70
2023/12/22 04:32:25;;;;;;;4.05;1.00;;;6.10;99.90;;;;;;5089357;28;20099;-67
2023/12/22 04:34:50;;;;;;;6.97;1.08;;;6.20;99.90;;;;;;5074990;28;20054;-66
2023/12/22 04:37:16;;;;;;;4.22;1.00;;;6.30;99.90;;;;;;5075282;28;20048;-66
2023/12/22 04:39:41;;;;;;;11.88;1.27;;;6.30;99.90;;;;;;5093610;28;20024;-65
2023/12/22 04:42:07;;;;;;;9.82;1.10;;;6.20;99.90;;;;;;5088447;28;20027;-66
2023/12/22 04:44:33;;;;;;;7.68;1.60;;;6.30;99.90;;;;;;5087271;28;20436;-65
2023/12/22 04:46:58;;;;;;;7.40;1.30;;;6.10;99.90;;;;;;5071683;28;20063;-70
2023/12/22 04:49:24;;;;;;;9.07;0.93;;;5.90;99.90;;;;;;5104279;28;20023;-64
2023/12/22 04:51:49;;;;;;;7.72;1.30;;;5.80;99.90;;;;;;5091446;28;20067;-65
2023/12/22 04:54:15;;;;;;;5.85;1.08;;;5.80;99.90;;;;;;5101723;28;20036;-65
2023/12/22 04:56:40;;;;;;;6.57;0.98;;;5.70;99.90;;;;;;5093435;28;20043;-66
2023/12/22 04:59:06;;;;;;;5.05;1.00;;;5.60;99.90;;;;;;5088528;28;20062;-66
2023/12/22 05:01:32;;;;;;;7.50;1.10;;;5.60;99.90;;;;;;5099059;28;20036;-67
2023/12/22 05:03:57;;;;;;;4.82;0.90;;;5.60;99.90;;;;;;5099475;28;20032;-71
2023/12/22 05:06:23;;;;;;;1.52;0.60;;;5.70;99.90;;;;;;5099849;28;20105;-64
2023/12/22 05:08:48;;;;;;;2.10;0.57;;;5.60;99.90;;;;;;5089040;28;20043;-65
2023/12/22 05:11:14;;;;;;;2.55;0.75;;;5.60;99.90;;;;;;5071262;28;20032;-64
2023/12/22 05:13:41;;;;;;;3.60;0.85;;;5.60;99.90;;;;;;5071890;28;20032;-67
2023/12/22 05:16:07;;;;;;;3.22;0.70;;;5.50;99.90;;;;;;5069848;28;20035;-65
2023/12/22 05:18:33;;;;;;;5.28;1.25;;;5.50;99.90;;;;;;5089101;28;20012;-64
2023/12/22 05:20:58;;;;;;;4.63;0.80;;;5.60;99.90;;;;;;5095699;28;20081;-71
2023/12/22 05:23:24;;;;;;;2.28;0.70;;;5.50;99.90;;;;;;5095537;28;20114;-64
2023/12/22 05:25:50;;;;;;;5.10;1.02;;;5.50;99.90;;;;;;5088595;28;20036;-67
2023/12/22 05:28:15;;;;;;;8.05;0.98;;;5.60;99.90;;;;;;5089598;28;20040;-66
2023/12/22 05:30:41;;;;;;;5.03;1.17;;;5.60;99.90;;;;;;5099098;28;20131;-67
2023/12/22 05:33:06;;;;;;;6.95;1.63;;;5.90;99.90;;;;;;5078679;28;20031;-65
2023/12/22 05:35:32;;;;;;;6.80;1.20;;;5.80;99.90;;;;;;5078271;28;20035;-66
2023/12/22 05:37:58;;;;;;;6.05;0.85;;;5.80;99.90;;;;;;5085817;28;20461;-65
2023/12/22 05:40:23;;;;;;;5.03;1.08;;;5.90;99.90;;;;;;5107769;28;20462;-64
2023/12/22 05:42:49;;;;;;;4.97;0.80;;;5.90;99.90;;;;;;5106646;28;20027;-65
2023/12/22 05:45:15;;;;;;;6.80;1.58;;;5.90;99.90;;;;;;5086514;28;20111;-65
2023/12/22 05:47:40;;;;;;;5.40;1.02;;;5.90;99.90;;;;;;5100565;28;20039;-66
2023/12/22 05:50:07;;;;;;;7.15;1.00;;;5.90;99.90;;;;;;5106516;28;20036;-67
2023/12/22 05:52:32;;;;;;;9.27;0.93;;;5.90;99.90;;;;;;5091448;28;20024;-65
2023/12/22 05:54:58;;;;;;;7.72;1.00;;;5.90;99.90;;;;;;5092831;28;20485;-65
2023/12/22 05:57:27;;;;;;;8.73;1.20;;;5.90;99.90;;;;;;5100774;28;20020;-65
2023/12/22 05:59:52;;;;;;;5.65;1.13;;;5.90;99.90;;;;;;5070081;28;20097;-66
2023/12/22 06:02:18;;;;;;;6.80;1.88;;;5.80;99.90;;;;;;5105785;28;20107;-64
2023/12/22 06:04:44;;;;;;;6.57;1.20;;;5.70;99.90;;;;;;5095789;28;20593;-65
2023/12/22 06:07:10;;;;;;;8.82;1.40;;;5.70;99.90;;;;;;5088651;28;20066;-64
2023/12/22 06:09:36;;;;;;;5.18;1.30;;;5.80;99.90;;;;;;5088578;28;20553;-67
2023/12/22 06:12:02;;;;;;;11.32;1.52;;;5.70;99.90;;;;;;5093383;28;20024;-72
2023/12/22 06:14:27;;;;;;;8.48;1.42;;;5.60;99.90;;;;;;5106502;28;20503;-66
2023/12/22 06:16:56;;;;;;;4.25;0.80;;;5.60;99.90;;;;;;5097639;28;20540;-65
2023/12/22 06:19:24;;;;;;;5.85;1.08;;;5.50;99.90;;;;;;5093531;28;20020;-66
2023/12/22 06:21:49;;;;;;;5.63;1.00;;;5.30;99.90;;;;;;5106270;28;20145;-66
2023/12/22 06:24:16;;;;;;;7.63;1.13;;;5.20;99.90;;;;;;5105093;28;20107;-66
2023/12/22 06:26:42;;;;;;;7.22;1.30;;;5.10;99.90;;;;;;5088654;28;20043;-67
2023/12/22 06:29:07;;;;;;;5.25;0.80;;;5.00;99.90;;;;;;5087621;28;20036;-65
2023/12/22 06:31:33;;;;;;;4.88;0.63;;;5.00;99.90;;;;;;5088143;28;20390;-66
2023/12/22 06:34:02;;;;;;;3.13;0.65;;;4.90;99.90;;;;;;5099587;28;20028;-65
2023/12/22 06:36:29;;;;;;;4.85;0.65;;;4.90;99.90;;;;;;5087623;28;20032;-65
2023/12/22 06:38:55;;;;;;;7.60;1.38;;;4.80;99.90;;;;;;5089145;28;20028;-66
2023/12/22 06:41:29;;;;;;;7.80;1.05;;;4.70;99.90;;;;;;5102578;28;20030;-69
2023/12/22 06:43:55;;;;;;;7.38;1.00;;;4.60;99.90;;;;;;5108584;28;20031;-62
2023/12/22 06:46:23;;;;;;;3.17;1.23;;;4.60;99.90;;;;;;5107833;28;20603;-65
2023/12/22 06:48:49;;;;;;;7.30;1.30;;;4.60;99.90;;;;;;5097571;28;20435;-65
2023/12/22 06:51:40;;;;;;;8.73;1.85;;;4.80;99.90;;;;;;5099983;28;20031;-62
2023/12/22 06:54:06;;;;;;;10.30;1.50;;;5.10;99.90;;;;;;5093566;28;20417;-70
2023/12/22 06:56:34;;;;;;;10.40;1.83;;;5.40;99.90;;;;;;5091674;28;20036;-63
2023/12/22 06:59:00;;;;;;;6.63;1.67;;;5.60;99.90;;;;;;5096388;28;20031;-63
2023/12/22 07:01:29;;;;;;;5.32;1.45;;;5.80;99.90;;;;;;5099588;28;20101;-65
2023/12/22 07:03:55;;;;;;;7.50;1.65;;;6.00;99.90;;;;;;5096570;28;20379;-63
2023/12/22 07:06:21;;;;;;;10.77;1.80;;;6.00;99.90;;;;;;5098672;28;20043;-65
2023/12/22 07:08:57;;;;;;;10.13;1.90;;;6.00;99.90;;;;;;5108587;28;20039;-65
2023/12/22 07:11:22;;;;;;;6.03;1.55;;;6.00;99.90;;;;;;5101128;28;20023;-63
2023/12/22 07:13:48;;;;;;;9.02;2.00;;;6.00;99.90;;;;;;5090797;28;20028;-64
2023/12/22 07:16:15;;;;;;;19.17;1.85;;;6.10;99.90;;;;;;5077250;28;20384;-65
2023/12/22 07:18:40;;;;;;;18.08;2.20;;;6.00;99.90;;;;;;5080354;28;20056;-65
2023/12/22 07:21:07;;;;;;;15.68;2.50;;;5.90;99.90;;;;;;5089901;28;20055;-72
2023/12/22 07:23:32;;;;;;;12.27;1.80;;;5.80;99.90;;;;;;5089623;28;20078;-64
2023/12/22 07:25:58;;;;;;;17.38;2.70;;;5.80;99.90;;;;;;5083488;28;20040;-64
2023/12/22 07:28:24;;;;;;;17.40;2.75;;;5.90;99.90;;;;;;5088207;28;20046;-64
2023/12/22 07:30:49;;;;;;;10.45;1.95;;;5.90;99.90;;;;;;5091029;28;20111;-64
2023/12/22 07:33:15;;;;;;;12.20;2.33;;;5.90;99.90;;;;;;5074158;28;20075;-64
2023/12/22 07:35:41;;;;;;;9.32;2.25;;;5.80;99.90;;;;;;5093439;28;20031;-66
2023/12/22 07:38:06;;;;;;;13.68;2.10;;;5.80;99.90;;;;;;5101325;28;20085;-71
2023/12/22 07:40:32;;;;;;;7.63;1.63;;;5.70;99.90;;;;;;5090266;28;20073;-66
2023/12/22 07:42:58;;;;;;;19.65;1.70;;;5.70;99.90;;;;;;5058989;28;20467;-68
2023/12/22 07:45:23;;;;;;;9.60;1.80;;;5.80;99.90;;;;;;5091982;28;20024;-64
2023/12/22 07:47:49;;;;;;;12.70;1.60;;;5.90;99.90;;;;;;5099625;28;20028;-67
2023/12/22 07:50:15;;;;;;;11.18;1.75;;;6.00;99.90;;;;;;5098811;28;20040;-67
2023/12/22 07:52:40;;;;;;;9.15;1.45;;;6.00;99.90;;;;;;5083621;28;20067;-69
2023/12/22 07:55:10;;;;;;;11.20;1.90;;;6.10;99.90;;;;;;5106755;28;20036;-68
2023/12/22 07:57:36;;;;;;;14.20;1.90;;;6.00;99.90;;;;;;5094361;28;20028;-67
2023/12/22 08:00:03;;;;;;;10.75;1.40;;;6.00;99.90;;;;;;5100505;28;20136;-66
2023/12/22 08:02:28;;;;;;;9.27;1.52;;;6.00;99.90;;;;;;5082073;28;20553;-65
2023/12/22 08:04:54;;;;;;;7.18;1.40;;;6.10;99.90;;;;;;5070016;28;20103;-64
2023/12/22 08:07:20;;;;;;;8.90;1.60;;;6.20;99.90;;;;;;5090243;28;20109;-70
2023/12/22 08:09:45;;;;;;;14.60;1.70;;;6.20;99.90;;;;;;5091290;28;20039;-69
2023/12/22 08:12:11;;;;;;;12.15;1.77;;;6.30;99.90;;;;;;5094202;28;20092;-76
2023/12/22 08:14:36;;;;;;;9.40;2.13;;;6.40;99.90;;;;;;5110376;28;20019;-65
2023/12/22 08:17:02;;;;;;;12.88;1.33;;;6.50;99.90;;;;;;5093726;28;20036;-65
2023/12/22 08:19:28;;;;;;;9.15;1.35;;;6.40;99.90;;;;;;5109660;28;20654;-64
2023/12/22 08:21:54;;;;;;;9.93;1.70;;;6.40;99.90;;;;;;5093209;28;20024;-65
2023/12/22 08:24:20;;;;;;;6.05;1.70;;;6.40;99.90;;;;;;5102421;28;20067;-68
2023/12/22 08:26:46;;;;;;;7.95;1.63;;;6.40;99.90;;;;;;5070697;28;20063;-67
2023/12/22 08:29:11;;;;;;;16.27;1.63;;;6.40;99.90;;;;;;5106022;28;20092;-71
2023/12/22 08:31:37;;;;;;;13.93;2.13;;;6.50;99.90;;;;;;5089878;28;20032;-65
2023/12/22 08:34:03;;;;;;;7.78;1.42;;;6.50;99.90;;;;;;5086637;28;20382;-65
2023/12/22 08:36:28;;;;;;;10.57;1.70;;;6.40;99.90;;;;;;5100236;28;20032;-65
2023/12/22 08:38:54;;;;;;;9.70;1.55;;;6.40;99.90;;;;;;5089844;28;20024;-65
2023/12/22 08:41:20;;;;;;;7.97;1.55;;;6.40;99.90;;;;;;5091109;28;20424;-67
2023/12/22 08:43:45;;;;;;;8.43;1.55;;;6.50;99.90;;;;;;5102537;28;20040;-65
2023/12/22 08:46:12;;;;;;;11.38;1.45;;;6.50;99.90;;;;;;5095087;28;20062;-71
2023/12/22 08:48:38;;;;;;;6.65;1.17;;;6.40;99.90;;;;;;5088131;28;20028;-65
2023/12/22 08:51:04;;;;;;;12.77;1.63;;;6.30;99.90;;;;;;5072279;28;20118;-64
2023/12/22 08:53:33;;;;;;;6.57;1.30;;;6.10;99.90;;;;;;5052778;28;20025;-65
2023/12/22 08:56:00;;;;;;;8.10;1.30;;;6.00;99.90;;;;;;5068619;28;20033;-65
2023/12/22 08:58:26;;;;;;;5.53;1.33;;;5.90;99.90;;;;;;5066156;28;20035;-67
2023/12/22 09:00:51;;;;;;;7.00;0.80;;;5.80;99.90;;;;;;5093200;28;20083;-65
2023/12/22 09:03:17;;;;;;;6.15;0.88;;;5.70;99.90;;;;;;5084735;28;20055;-66
2023/12/22 09:05:43;;;;;;;4.82;0.82;;;5.60;99.90;;;;;;5088814;28;20028;-65
2023/12/22 09:08:08;;;;;;;4.35;0.65;;;5.60;99.90;;;;;;5092122;28;20118;-65
2023/12/22 09:10:35;;;;;;;6.88;0.82;;;5.50;99.90;;;;;;5088305;28;20113;-65
2023/12/22 09:13:00;;;;;;;3.88;0.70;;;5.60;99.90;;;;;;5077853;28;20037;-66
2023/12/22 09:15:26;;;;;;;4.97;1.00;;;5.60;99.90;;;;;;5080710;28;20036;-67
2023/12/22 09:17:53;;;;;;;9.38;0.95;;;5.60;99.90;;;;;;5089887;28;20466;-67
2023/12/22 09:20:18;;;;;;;9.90;1.17;;;5.70;99.90;;;;;;5106419;28;20027;-66
2023/12/22 09:22:44;;;;;;;5.47;1.23;;;5.70;99.90;;;;;;5090274;28;20076;-65
2023/12/22 09:25:10;;;;;;;9.35;1.08;;;5.80;99.90;;;;;;5103194;28;20674;-72
2023/12/22 09:27:35;;;;;;;8.85;1.15;;;5.80;99.90;;;;;;5094457;28;20036;-67
2023/12/22 09:30:01;;;;;;;7.60;1.23;;;5.80;99.90;;;;;;5081873;28;20044;-67
2023/12/22 09:32:27;;;;;;;6.13;1.20;;;5.90;99.90;;;;;;5074652;28;20035;-66
2023/12/22 09:34:55;;;;;;;8.18;1.33;;;5.90;99.90;;;;;;5050645;28;20463;-65
2023/12/22 09:37:20;;;;;;;6.82;1.20;;;5.90;99.90;;;;;;5074832;28;20081;-65
2023/12/22 09:39:46;;;;;;;5.07;1.05;;;5.90;99.90;;;;;;5093522;28;20565;-67
2023/12/22 09:42:11;;;;;;;6.88;1.50;;;5.90;99.90;;;;;;5082492;28;20029;-66
2023/12/22 09:44:41;;;;;;;11.82;1.35;;;5.90;99.90;;;;;;5073290;28;20036;-66
2023/12/22 09:47:08;;;;;;;10.82;1.50;;;5.90;99.90;;;;;;5095926;28;20043;-66
2023/12/22 09:49:35;;;;;;;7.00;1.13;;;5.90;99.90;;;;;;5071880;28;20758;-66
2023/12/22 09:52:03;;;;;;;10.20;1.40;;;6.00;99.90;;;;;;5082854;28;20478;-66
2023/12/22 09:54:32;;;;;;;8.48;1.33;;;6.00;99.90;;;;;;5069768;28;20033;-65
2023/12/22 09:57:00;;;;;;;9.75;1.20;;;6.00;99.90;;;;;;5076303;28;20274;-65
2023/12/22 09:59:28;;;;;;;7.65;2.00;;;6.00;99.90;;;;;;5068175;28;20044;-66
2023/12/22 10:01:55;;;;;;;9.85;1.70;;;6.10;99.90;;;;;;5081391;28;20384;-65
2023/12/22 10:04:21;;;;;;;11.57;1.83;;;6.10;99.90;;;;;;5080776;28;20105;-66
2023/12/22 10:06:48;;;;;;;15.90;2.42;;;6.10;99.90;;;;;;5087016;28;20479;-65
2023/12/22 10:09:16;;;;;;;14.38;2.10;;;6.10;99.90;;;;;;5088134;28;20032;-64
2023/12/22 10:11:44;;;;;;;13.50;2.00;;;6.10;99.90;;;;;;5082541;28;20158;-66
2023/12/22 10:14:10;;;;;;;14.05;2.25;;;6.20;99.90;;;;;;5070331;28;20059;-64
2023/12/22 10:16:36;;;;;;;19.60;2.70;;;6.20;99.90;;;;;;5096816;28;20493;-65
2023/12/22 10:19:03;;;;;;;23.33;2.95;;;6.30;99.90;;;;;;5092475;28;20107;-64
2023/12/22 10:21:30;;;;;;;16.48;2.55;;;6.30;99.90;;;;;;5091008;28;20035;-64
2023/12/22 10:23:57;;;;;;;18.23;3.20;;;6.30;99.90;;;;;;5090753;28;20335;-68
2023/12/22 10:26:22;;;;;;;14.25;2.75;;;6.30;99.90;;;;;;5090120;28;20039;-66
2023/12/22 10:28:52;;;;;;;20.30;3.03;;;6.40;99.90;;;;;;5090457;28;20028;-64
2023/12/22 10:31:18;;;;;;;19.80;2.75;;;6.40;99.90;;;;;;5080310;28;20060;-71
2023/12/22 10:33:44;;;;;;;21.75;2.80;;;6.40;99.90;;;;;;5078513;28;20060;-65
2023/12/22 10:36:10;;;;;;;21.83;2.85;;;6.40;99.90;;;;;;5077546;28;20553;-67
2023/12/22 10:38:36;;;;;;;23.77;3.30;;;6.40;99.90;;;;;;5088707;28;20034;-66
2023/12/22 10:41:06;;;;;;;22.52;3.17;;;6.40;99.90;;;;;;5078972;28;20055;-66
2023/12/22 10:43:40;;;;;;;27.08;3.03;;;6.50;99.90;;;;;;5070225;28;20544;-65
2023/12/22 10:46:08;;;;;;;19.63;3.17;;;6.40;99.90;;;;;;5083766;28;20128;-66
2023/12/22 10:48:34;;;;;;;20.15;3.28;;;6.50;99.90;;;;;;5072625;28;20090;-64
2023/12/22 10:50:59;;;;;;;17.50;2.42;;;6.50;99.90;;;;;;5071417;28;20364;-65
2023/12/22 10:53:25;;;;;;;15.05;2.33;;;6.60;99.90;;;;;;5091858;28;20564;-68
2023/12/22 10:55:51;;;;;;;17.55;2.90;;;6.60;99.90;;;;;;5072587;28;20040;-66
2023/12/22 10:58:18;;;;;;;20.67;3.05;;;6.60;99.90;;;;;;5095825;28;20053;-69
2023/12/22 11:00:46;;;;;;;19.95;2.55;;;6.60;99.90;;;;;;5093190;28;20059;-64
2023/12/22 11:03:18;;;;;;;18.20;2.28;;;6.60;99.90;;;;;;5108170;28;20043;-65
2023/12/22 11:05:46;;;;;;;16.60;2.45;;;6.60;99.90;;;;;;5086879;28;20031;-64
2023/12/22 11:08:13;;;;;;;15.00;2.50;;;6.60;99.90;;;;;;5091498;28;20114;-65
2023/12/22 11:10:44;;;;;;;25.42;3.40;;;6.60;99.90;;;;;;5107478;28;20032;-65
2023/12/22 11:13:12;;;;;;;17.52;2.40;;;6.70;99.90;;;;;;5091798;28;20031;-65
2023/12/22 11:15:39;;;;;;;25.77;3.22;;;6.60;99.90;;;;;;5090639;28;20024;-65
2023/12/22 11:18:05;;;;;;;26.38;3.70;;;6.60;99.90;;;;;;5090369;28;20048;-65
2023/12/22 11:20:32;;;;;;;18.83;2.80;;;6.60;99.90;;;;;;5092023;28;20482;-67
2023/12/22 11:23:00;;;;;;;25.13;2.60;;;6.50;99.90;;;;;;5102132;28;20035;-65
2023/12/22 11:25:27;;;;;;;26.40;3.65;;;6.50;99.90;;;;;;5109331;28;20691;-66
2023/12/22 11:27:53;;;;;;;16.35;3.00;;;6.50;99.90;;;;;;5096002;28;20055;-66
2023/12/22 11:30:21;;;;;;;15.50;2.85;;;6.50;99.90;;;;;;5090752;28;20027;-71
2023/12/22 11:32:49;;;;;;;18.40;2.95;;;6.40;99.90;;;;;;5061021;28;20040;-66
2023/12/22 11:35:14;;;;;;;20.48;3.15;;;6.30;99.90;;;;;;5085351;28;20502;-65
2023/12/22 11:37:42;;;;;;;19.08;3.13;;;6.30;99.90;;;;;;5081304;28;20021;-67
2023/12/22 11:40:08;;;;;;;17.83;2.70;;;6.30;99.90;;;;;;5089960;28;20487;-66
2023/12/22 11:42:47;;;;;;;21.80;3.10;;;6.40;99.90;;;;;;5077160;28;20097;-65
2023/12/22 11:45:15;;;;;;;22.02;3.72;;;6.40;99.90;;;;;;5082288;28;20028;-66
2023/12/22 11:47:41;;;;;;;23.95;3.20;;;6.30;99.90;;;;;;5085651;28;20061;-66
2023/12/22 11:50:10;;;;;;;9.48;2.00;;;6.30;99.90;;;;;;5091079;28;20028;-67
2023/12/22 11:52:36;;;;;;;15.25;2.70;;;6.40;99.90;;;;;;5091923;28;20482;-67
2023/12/22 11:55:02;;;;;;;19.65;2.58;;;6.50;99.90;;;;;;5070841;28;20039;-66
2023/12/22 11:57:28;;;;;;;14.95;2.00;;;6.60;99.90;;;;;;5088280;28;20032;-69
2023/12/22 12:00:01;;;;;;;15.90;1.92;;;6.60;99.90;;;;;;5096588;28;20079;-65
2023/12/22 12:02:27;;;;;;;12.15;2.30;;;6.70;99.90;;;;;;5088270;28;20035;-66
2023/12/22 12:04:53;;;;;;;13.20;1.90;;;6.80;99.90;;;;;;5077851;28;20462;-65
2023/12/22 12:07:44;;;;;;;12.77;1.98;;;6.70;99.90;;;;;;5084569;28;20104;-64
2023/12/22 12:10:37;;;;;;;8.73;2.05;;;6.80;99.90;;;;;;5089771;28;20039;-66
2023/12/22 12:13:10;;;;;;;12.18;2.03;;;6.80;99.90;;;;;;5071171;28;20115;-66
2023/12/22 12:15:36;;;;;;;9.82;1.85;;;6.80;99.90;;;;;;5106546;28;20797;-66
2023/12/22 12:18:04;;;;;;;10.10;1.48;;;6.80;99.90;;;;;;5081538;28;20032;-67
2023/12/22 12:20:30;;;;;;;10.38;1.67;;;6.80;99.90;;;;;;5079744;28;20061;-65
2023/12/22 12:22:55;;;;;;;10.13;1.92;;;6.80;99.90;;;;;;5094777;28;20035;-64
2023/12/22 12:25:28;;;;;;;8.45;1.70;;;6.80;99.90;;;;;;5090090;28;20028;-64
2023/12/22 12:28:04;;;;;;;10.27;1.50;;;6.70;99.90;;;;;;5075116;28;20056;-62
2023/12/22 12:30:31;;;;;;;12.70;1.52;;;6.70;99.90;;;;;;5070565;28;20036;-65
2023/12/22 12:33:05;;;;;;;7.15;1.50;;;6.70;99.90;;;;;;5076414;28;20029;-64
2023/12/22 12:35:32;;;;;;;8.07;1.85;;;6.60;99.90;;;;;;5089491;28;20031;-65
2023/12/22 12:37:59;;;;;;;4.68;1.15;;;6.60;99.90;;;;;;5085841;28;20521;-63
2023/12/22 12:40:26;;;;;;;9.95;1.35;;;6.60;99.90;;;;;;5080459;28;20067;-69
2023/12/22 12:42:53;;;;;;;4.15;0.85;;;6.50;99.90;;;;;;5076352;28;20112;-64
2023/12/22 12:45:25;;;;;;;5.38;1.25;;;6.50;99.90;;;;;;5104962;28;20027;-63
2023/12/22 12:47:56;;;;;;;3.65;0.60;;;6.60;99.90;;;;;;5084917;28;20104;-66
2023/12/22 12:50:25;;;;;;;5.82;0.68;;;6.60;99.90;;;;;;5065957;28;20390;-65